sensor_id;sensor_type;location;lat;lon;timestamp;pressure;altitude;pressure_sealevel;temperature;humidity
63946;BME280;50122;56.330;43.838;2022-10-01T00:01:21;101174.72;;;10.86;100.00
63946;BME280;50122;56.330;43.838;2022-10-01T00:03:49;101171.19;;;10.87;100.00
63946;BME280;50122;56.330;43.838;2022-10-01T00:06:18;101175.31;;;10.95;100.00
63946;BME280;50122;56.330;43.838;2022-10-01T00:08:47;101150.97;;;10.84;100.00
63946;BME280;50122;56.330;43.838;2022-10-01T00:11:23;101166.22;;;11.04;100.00
63946;BME280;50122;56.330;43.838;2022-10-01T00:13:50;101171.38;;;11.09;100.00
63946;BME280;50122;56.330;43.838;2022-10-01T00:16:20;101146.94;;;11.01;100.00
63946;BME280;50122;56.330;43.838;2022-10-01T00:18:48;101158.97;;;11.11;100.00
63946;BME280;50122;56.330;43.838;2022-10-01T00:21:18;101151.03;;;11.11;100.00
63946;BME280;50122;56.330;43.838;2022-10-01T00:23:46;101155.09;;;11.21;100.00
63946;BME280;50122;56.330;43.838;2022-10-01T00:26:19;101155.81;;;11.26;100.00
63946;BME280;50122;56.330;43.838;2022-10-01T00:28:53;101156.75;;;11.25;100.00
63946;BME280;50122;56.330;43.838;2022-10-01T00:31:21;101152.47;;;11.21;100.00
63946;BME280;50122;56.330;43.838;2022-10-01T00:33:51;101153.09;;;11.29;100.00
63946;BME280;50122;56.330;43.838;2022-10-01T00:36:19;101159.97;;;11.34;100.00
63946;BME280;50122;56.330;43.838;2022-10-01T00:38:45;101145.94;;;11.32;100.00
63946;BME280;50122;56.330;43.838;2022-10-01T00:41:15;101148.44;;;11.36;100.00
63946;BME280;50122;56.330;43.838;2022-10-01T00:43:44;101135.31;;;11.33;100.00
63946;BME280;50122;56.330;43.838;2022-10-01T00:46:19;101146.56;;;11.40;100.00
63946;BME280;50122;56.330;43.838;2022-10-01T00:49:15;101144.56;;;11.46;100.00
63946;BME280;50122;56.330;43.838;2022-10-01T00:51:48;101136.66;;;11.45;100.00
63946;BME280;50122;56.330;43.838;2022-10-01T00:54:19;101135.66;;;11.49;100.00
63946;BME280;50122;56.330;43.838;2022-10-01T00:56:49;101123.31;;;11.48;100.00
63946;BME280;50122;56.330;43.838;2022-10-01T00:59:19;101152.78;;;11.64;100.00
63946;BME280;50122;56.330;43.838;2022-10-01T01:01:46;101151.88;;;11.65;100.00
63946;BME280;50122;56.330;43.838;2022-10-01T01:04:14;101149.22;;;11.65;100.00
63946;BME280;50122;56.330;43.838;2022-10-01T01:06:49;101137.56;;;11.71;100.00
63946;BME280;50122;56.330;43.838;2022-10-01T01:09:19;101142.06;;;11.69;100.00
63946;BME280;50122;56.330;43.838;2022-10-01T01:20:49;101131.91;;;11.81;100.00
63946;BME280;50122;56.330;43.838;2022-10-01T01:28:33;101140.59;;;11.85;100.00
63946;BME280;50122;56.330;43.838;2022-10-01T01:31:08;101141.25;;;11.92;100.00
63946;BME280;50122;56.330;43.838;2022-10-01T01:33:39;101132.66;;;11.85;100.00
63946;BME280;50122;56.330;43.838;2022-10-01T01:36:12;101135.06;;;11.91;99.97
63946;BME280;50122;56.330;43.838;2022-10-01T01:38:51;101141.97;;;11.97;100.00
63946;BME280;50122;56.330;43.838;2022-10-01T01:41:23;101115.91;;;11.85;100.00
63946;BME280;50122;56.330;43.838;2022-10-01T01:43:54;101140.13;;;11.99;99.90
63946;BME280;50122;56.330;43.838;2022-10-01T01:46:23;101135.69;;;11.99;100.00
63946;BME280;50122;56.330;43.838;2022-10-01T01:49:00;101138.28;;;12.01;99.86
63946;BME280;50122;56.330;43.838;2022-10-01T01:51:40;101129.44;;;12.02;99.85
63946;BME280;50122;56.330;43.838;2022-10-01T01:54:08;101126.84;;;12.01;99.79
63946;BME280;50122;56.330;43.838;2022-10-01T01:56:35;101113.78;;;11.94;99.59
63946;BME280;50122;56.330;43.838;2022-10-01T01:59:02;101119.69;;;12.03;99.74
63946;BME280;50122;56.330;43.838;2022-10-01T02:01:40;101126.59;;;12.07;99.34
63946;BME280;50122;56.330;43.838;2022-10-01T02:10:17;101113.19;;;12.11;99.78
63946;BME280;50122;56.330;43.838;2022-10-01T02:13:34;101111.50;;;12.09;99.63
63946;BME280;50122;56.330;43.838;2022-10-01T02:16:27;101104.50;;;12.08;99.48
63946;BME280;50122;56.330;43.838;2022-10-01T02:22:16;101114.91;;;12.12;99.20
63946;BME280;50122;56.330;43.838;2022-10-01T02:24:49;101115.81;;;12.11;99.19
63946;BME280;50122;56.330;43.838;2022-10-01T02:27:25;101117.56;;;12.12;98.94
63946;BME280;50122;56.330;43.838;2022-10-01T02:29:57;101112.31;;;12.11;98.78
63946;BME280;50122;56.330;43.838;2022-10-01T02:32:27;101114.06;;;12.12;98.96
63946;BME280;50122;56.330;43.838;2022-10-01T02:34:57;101109.50;;;12.15;98.81
63946;BME280;50122;56.330;43.838;2022-10-01T02:37:26;101108.75;;;12.12;98.95
63946;BME280;50122;56.330;43.838;2022-10-01T02:39:55;101119.19;;;12.16;98.70
63946;BME280;50122;56.330;43.838;2022-10-01T02:42:26;101117.50;;;12.14;98.80
63946;BME280;50122;56.330;43.838;2022-10-01T02:44:55;101112.31;;;12.11;98.92
63946;BME280;50122;56.330;43.838;2022-10-01T02:47:36;101112.94;;;12.18;98.82
63946;BME280;50122;56.330;43.838;2022-10-01T02:50:07;101111.22;;;12.16;98.76
63946;BME280;50122;56.330;43.838;2022-10-01T02:52:57;101110.19;;;12.21;98.77
63946;BME280;50122;56.330;43.838;2022-10-01T02:55:28;101113.72;;;12.21;98.47
63946;BME280;50122;56.330;43.838;2022-10-01T02:57:57;101114.69;;;12.19;98.53
63946;BME280;50122;56.330;43.838;2022-10-01T03:00:23;101113.81;;;12.18;98.40
63946;BME280;50122;56.330;43.838;2022-10-01T03:02:52;101121.66;;;12.21;98.34
63946;BME280;50122;56.330;43.838;2022-10-01T03:05:20;101123.41;;;12.22;98.44
63946;BME280;50122;56.330;43.838;2022-10-01T03:07:47;101112.84;;;12.21;98.33
63946;BME280;50122;56.330;43.838;2022-10-01T03:10:14;101125.94;;;12.25;98.35
63946;BME280;50122;56.330;43.838;2022-10-01T03:12:42;101125.00;;;12.26;98.63
63946;BME280;50122;56.330;43.838;2022-10-01T03:15:11;101117.91;;;12.27;98.50
63946;BME280;50122;56.330;43.838;2022-10-01T03:17:38;101121.34;;;12.29;98.50
63946;BME280;50122;56.330;43.838;2022-10-01T03:20:07;101089.16;;;12.16;98.13
63946;BME280;50122;56.330;43.838;2022-10-01T03:22:34;101115.94;;;12.32;98.31
63946;BME280;50122;56.330;43.838;2022-10-01T03:25:01;101115.09;;;12.31;97.98
63946;BME280;50122;56.330;43.838;2022-10-01T03:27:28;101106.41;;;12.28;98.04
63946;BME280;50122;56.330;43.838;2022-10-01T03:29:57;101116.75;;;12.34;97.89
63946;BME280;50122;56.330;43.838;2022-10-01T03:32:23;101115.94;;;12.32;98.12
63946;BME280;50122;56.330;43.838;2022-10-01T03:34:50;101113.25;;;12.33;97.64
63946;BME280;50122;56.330;43.838;2022-10-01T03:37:16;101113.28;;;12.32;97.97
63946;BME280;50122;56.330;43.838;2022-10-01T03:39:43;101122.91;;;12.34;97.53
63946;BME280;50122;56.330;43.838;2022-10-01T03:42:11;101123.88;;;12.33;97.55
63946;BME280;50122;56.330;43.838;2022-10-01T03:44:37;101123.09;;;12.30;97.50
63946;BME280;50122;56.330;43.838;2022-10-01T03:47:04;101119.41;;;12.34;97.55
63946;BME280;50122;56.330;43.838;2022-10-01T03:49:32;101112.63;;;12.27;97.53
63946;BME280;50122;56.330;43.838;2022-10-01T03:52:00;101116.69;;;12.36;97.80
63946;BME280;50122;56.330;43.838;2022-10-01T03:54:27;101120.84;;;12.43;97.85
63946;BME280;50122;56.330;43.838;2022-10-01T03:56:56;101125.13;;;12.47;97.37
63946;BME280;50122;56.330;43.838;2022-10-01T03:59:23;101120.53;;;12.50;97.60
63946;BME280;50122;56.330;43.838;2022-10-01T04:01:52;101102.41;;;12.40;97.31
63946;BME280;50122;56.330;43.838;2022-10-01T04:04:20;101118.94;;;12.46;97.01
63946;BME280;50122;56.330;43.838;2022-10-01T04:06:47;101123.31;;;12.47;96.99
63946;BME280;50122;56.330;43.838;2022-10-01T04:09:14;101103.25;;;12.40;97.12
63946;BME280;50122;56.330;43.838;2022-10-01T04:11:40;101124.94;;;12.51;97.03
63946;BME280;50122;56.330;43.838;2022-10-01T04:14:07;101116.00;;;12.54;97.18
63946;BME280;50122;56.330;43.838;2022-10-01T04:16:34;101109.72;;;12.57;97.13
63946;BME280;50122;56.330;43.838;2022-10-01T04:19:03;101108.63;;;12.62;97.08
63946;BME280;50122;56.330;43.838;2022-10-01T04:21:29;101122.41;;;12.71;96.96
63946;BME280;50122;56.330;43.838;2022-10-01T04:23:57;101116.25;;;12.70;96.59
63946;BME280;50122;56.330;43.838;2022-10-01T04:26:27;101102.13;;;12.69;96.56
63946;BME280;50122;56.330;43.838;2022-10-01T04:28:54;101109.53;;;12.83;96.59
63946;BME280;50122;56.330;43.838;2022-10-01T04:31:20;101113.72;;;12.89;96.34
63946;BME280;50122;56.330;43.838;2022-10-01T04:33:55;101117.31;;;12.88;96.12
63946;BME280;50122;56.330;43.838;2022-10-01T04:36:23;101114.06;;;12.81;95.59
63946;BME280;50122;56.330;43.838;2022-10-01T04:38:53;101108.91;;;12.77;95.75
63946;BME280;50122;56.330;43.838;2022-10-01T04:41:27;101113.22;;;12.79;96.08
63946;BME280;50122;56.330;43.838;2022-10-01T04:43:56;101079.66;;;12.56;95.99
63946;BME280;50122;56.330;43.838;2022-10-01T04:46:24;101111.53;;;12.78;96.15
63946;BME280;50122;56.330;43.838;2022-10-01T04:48:51;101109.53;;;12.83;96.45
63946;BME280;50122;56.330;43.838;2022-10-01T04:51:18;101097.94;;;12.86;96.08
63946;BME280;50122;56.330;43.838;2022-10-01T04:53:44;101106.75;;;12.86;96.13
63946;BME280;50122;56.330;43.838;2022-10-01T04:56:11;101103.88;;;12.93;96.22
63946;BME280;50122;56.330;43.838;2022-10-01T04:58:37;101086.66;;;13.03;96.45
63946;BME280;50122;56.330;43.838;2022-10-01T05:01:04;101097.13;;;13.06;95.59
63946;BME280;50122;56.330;43.838;2022-10-01T05:03:31;101090.09;;;13.05;95.30
63946;BME280;50122;56.330;43.838;2022-10-01T05:05:58;101080.47;;;13.02;95.66
63946;BME280;50122;56.330;43.838;2022-10-01T05:08:26;101100.72;;;13.26;95.90
63946;BME280;50122;56.330;43.838;2022-10-01T05:10:52;101077.28;;;13.37;95.88
63946;BME280;50122;56.330;43.838;2022-10-01T05:13:19;101082.78;;;13.53;94.99
63946;BME280;50122;56.330;43.838;2022-10-01T05:15:49;101099.94;;;13.66;94.86
63946;BME280;50122;56.330;43.838;2022-10-01T05:18:17;101089.69;;;13.78;94.22
